sensor_id;sensor_type;location;lat;lon;timestamp;pressure;altitude;pressure_sealevel;temperature;humidity
58973;BME280;44750;52.040;7.472;2023-03-04T00:04:45;101090.44;;;5.31;100.00
58973;BME280;44750;52.040;7.472;2023-03-04T00:09:46;101085.81;;;5.33;100.00
58973;BME280;44750;52.040;7.472;2023-03-04T00:14:46;101081.31;;;5.21;100.00
58973;BME280;44750;52.040;7.472;2023-03-04T00:19:46;101070.38;;;5.11;100.00
58973;BME280;44750;52.040;7.472;2023-03-04T00:24:46;101089.25;;;5.22;100.00
58973;BME280;44750;52.040;7.472;2023-03-04T00:29:47;101068.91;;;5.07;100.00
58973;BME280;44750;52.040;7.472;2023-03-04T00:34:47;101062.66;;;5.06;100.00
58973;BME280;44750;52.040;7.472;2023-03-04T00:39:47;101089.69;;;5.29;100.00
58973;BME280;44750;52.040;7.472;2023-03-04T00:44:48;101080.00;;;5.26;100.00
58973;BME280;44750;52.040;7.472;2023-03-04T00:49:48;101069.09;;;5.16;100.00
58973;BME280;44750;52.040;7.472;2023-03-04T00:54:48;101074.69;;;5.13;100.00
58973;BME280;44750;52.040;7.472;2023-03-04T00:59:48;101080.59;;;5.18;100.00
58973;BME280;44750;52.040;7.472;2023-03-04T01:04:49;101071.47;;;5.08;100.00
58973;BME280;44750;52.040;7.472;2023-03-04T01:09:49;101079.06;;;5.14;100.00
58973;BME280;44750;52.040;7.472;2023-03-04T01:14:49;101081.00;;;5.12;100.00
58973;BME280;44750;52.040;7.472;2023-03-04T01:19:49;101076.91;;;5.19;100.00
58973;BME280;44750;52.040;7.472;2023-03-04T01:24:50;101078.09;;;5.15;100.00
58973;BME280;44750;52.040;7.472;2023-03-04T01:29:50;101069.84;;;5.18;100.00
58973;BME280;44750;52.040;7.472;2023-03-04T01:34:50;101065.88;;;5.11;100.00
58973;BME280;44750;52.040;7.472;2023-03-04T01:39:50;101062.66;;;5.19;100.00
58973;BME280;44750;52.040;7.472;2023-03-04T01:44:51;101057.28;;;5.19;100.00
58973;BME280;44750;52.040;7.472;2023-03-04T01:49:55;101046.56;;;5.06;100.00
58973;BME280;44750;52.040;7.472;2023-03-04T01:54:56;101044.75;;;5.07;100.00
58973;BME280;44750;52.040;7.472;2023-03-04T02:00:23;101051.81;;;5.08;100.00
58973;BME280;44750;52.040;7.472;2023-03-04T02:05:25;101053.00;;;5.16;100.00
58973;BME280;44750;52.040;7.472;2023-03-04T02:10:26;101061.56;;;5.22;100.00
58973;BME280;44750;52.040;7.472;2023-03-04T02:15:28;101041.59;;;5.13;100.00
58973;BME280;44750;52.040;7.472;2023-03-04T02:25:38;101031.00;;;5.11;100.00
58973;BME280;44750;52.040;7.472;2023-03-04T02:30:41;101043.75;;;5.21;100.00
58973;BME280;44750;52.040;7.472;2023-03-04T02:35:42;101041.41;;;5.16;100.00
58973;BME280;44750;52.040;7.472;2023-03-04T02:40:45;101030.44;;;5.06;100.00
58973;BME280;44750;52.040;7.472;2023-03-04T02:45:48;101027.56;;;5.09;100.00
58973;BME280;44750;52.040;7.472;2023-03-04T02:50:51;101011.38;;;4.98;100.00
58973;BME280;44750;52.040;7.472;2023-03-04T02:55:51;101026.16;;;5.16;100.00
58973;BME280;44750;52.040;7.472;2023-03-04T03:00:52;100993.00;;;4.92;100.00
58973;BME280;44750;52.040;7.472;2023-03-04T03:05:53;100992.28;;;4.90;100.00
58973;BME280;44750;52.040;7.472;2023-03-04T03:10:53;100985.84;;;4.79;100.00
58973;BME280;44750;52.040;7.472;2023-03-04T03:15:53;100989.50;;;4.91;100.00
58973;BME280;44750;52.040;7.472;2023-03-04T03:20:53;100993.66;;;4.95;100.00
58973;BME280;44750;52.040;7.472;2023-03-04T03:25:53;100984.13;;;4.91;100.00
58973;BME280;44750;52.040;7.472;2023-03-04T03:30:54;100989.06;;;4.97;100.00
58973;BME280;44750;52.040;7.472;2023-03-04T03:35:54;100978.88;;;4.90;100.00
58973;BME280;44750;52.040;7.472;2023-03-04T03:40:54;100970.41;;;4.96;100.00
58973;BME280;44750;52.040;7.472;2023-03-04T03:45:54;100960.53;;;4.83;100.00
58973;BME280;44750;52.040;7.472;2023-03-04T03:50:55;100975.00;;;4.94;100.00
58973;BME280;44750;52.040;7.472;2023-03-04T03:55:55;100974.78;;;4.97;100.00
58973;BME280;44750;52.040;7.472;2023-03-04T04:00:55;100976.38;;;4.99;100.00
58973;BME280;44750;52.040;7.472;2023-03-04T04:05:55;100978.75;;;5.04;100.00
58973;BME280;44750;52.040;7.472;2023-03-04T04:10:56;100982.16;;;5.06;100.00
58973;BME280;44750;52.040;7.472;2023-03-04T04:15:56;100988.47;;;5.05;100.00
58973;BME280;44750;52.040;7.472;2023-03-04T04:20:56;100990.97;;;5.08;100.00
58973;BME280;44750;52.040;7.472;2023-03-04T04:25:57;100983.34;;;5.02;100.00
58973;BME280;44750;52.040;7.472;2023-03-04T04:30:57;100959.13;;;4.91;100.00
58973;BME280;44750;52.040;7.472;2023-03-04T04:35:57;100979.16;;;5.11;100.00
58973;BME280;44750;52.040;7.472;2023-03-04T04:40:58;100964.25;;;5.07;100.00
58973;BME280;44750;52.040;7.472;2023-03-04T04:45:59;100941.63;;;4.85;100.00
58973;BME280;44750;52.040;7.472;2023-03-04T04:50:59;100956.97;;;4.96;100.00
58973;BME280;44750;52.040;7.472;2023-03-04T04:55:59;100966.53;;;5.00;100.00
58973;BME280;44750;52.040;7.472;2023-03-04T05:00:59;100960.22;;;4.88;100.00
58973;BME280;44750;52.040;7.472;2023-03-04T05:06:00;100967.78;;;4.94;100.00
58973;BME280;44750;52.040;7.472;2023-03-04T05:11:01;100975.97;;;4.93;100.00
58973;BME280;44750;52.040;7.472;2023-03-04T05:16:01;100979.81;;;5.01;100.00
58973;BME280;44750;52.040;7.472;2023-03-04T05:21:02;100976.50;;;4.98;100.00
58973;BME280;44750;52.040;7.472;2023-03-04T05:26:04;100964.81;;;4.86;100.00
58973;BME280;44750;52.040;7.472;2023-03-04T05:31:04;100985.19;;;4.89;100.00
58973;BME280;44750;52.040;7.472;2023-03-04T05:36:06;100976.41;;;4.87;100.00
58973;BME280;44750;52.040;7.472;2023-03-04T05:41:06;100982.94;;;4.82;100.00
58973;BME280;44750;52.040;7.472;2023-03-04T05:46:08;100987.34;;;4.83;100.00
58973;BME280;44750;52.040;7.472;2023-03-04T05:51:10;100985.00;;;4.79;100.00
58973;BME280;44750;52.040;7.472;2023-03-04T05:56:16;100986.72;;;4.80;100.00
58973;BME280;44750;52.040;7.472;2023-03-04T06:01:17;100983.94;;;4.81;100.00
58973;BME280;44750;52.040;7.472;2023-03-04T06:06:17;100990.44;;;5.03;100.00
58973;BME280;44750;52.040;7.472;2023-03-04T06:11:17;100986.03;;;5.02;100.00
58973;BME280;44750;52.040;7.472;2023-03-04T06:16:18;100963.97;;;4.85;100.00
58973;BME280;44750;52.040;7.472;2023-03-04T06:21:18;100966.72;;;4.97;100.00
58973;BME280;44750;52.040;7.472;2023-03-04T06:26:18;100973.41;;;4.91;100.00
58973;BME280;44750;52.040;7.472;2023-03-04T06:31:18;100988.63;;;4.91;100.00
58973;BME280;44750;52.040;7.472;2023-03-04T06:36:19;100982.28;;;4.92;100.00
58973;BME280;44750;52.040;7.472;2023-03-04T06:41:19;100962.47;;;4.81;100.00
58973;BME280;44750;52.040;7.472;2023-03-04T06:46:19;100983.28;;;4.91;100.00
58973;BME280;44750;52.040;7.472;2023-03-04T06:51:20;100982.41;;;4.90;100.00
58973;BME280;44750;52.040;7.472;2023-03-04T06:56:20;100979.41;;;4.95;100.00
58973;BME280;44750;52.040;7.472;2023-03-04T07:01:22;101007.59;;;5.13;100.00
58973;BME280;44750;52.040;7.472;2023-03-04T07:06:25;101014.19;;;5.33;100.00
58973;BME280;44750;52.040;7.472;2023-03-04T07:11:26;101007.66;;;5.25;100.00
58973;BME280;44750;52.040;7.472;2023-03-04T07:16:26;100992.31;;;5.27;100.00
58973;BME280;44750;52.040;7.472;2023-03-04T07:21:27;101006.44;;;5.42;100.00
58973;BME280;44750;52.040;7.472;2023-03-04T07:26:27;100997.53;;;5.41;100.00
58973;BME280;44750;52.040;7.472;2023-03-04T07:31:30;101004.56;;;5.55;100.00
58973;BME280;44750;52.040;7.472;2023-03-04T07:36:32;101016.16;;;5.56;100.00
58973;BME280;44750;52.040;7.472;2023-03-04T07:41:34;100978.91;;;5.27;100.00
58973;BME280;44750;52.040;7.472;2023-03-04T07:46:34;100993.81;;;5.31;100.00
58973;BME280;44750;52.040;7.472;2023-03-04T07:51:35;100970.97;;;5.25;100.00
58973;BME280;44750;52.040;7.472;2023-03-04T07:56:35;100972.03;;;5.23;100.00
58973;BME280;44750;52.040;7.472;2023-03-04T08:01:36;101008.31;;;5.28;100.00
58973;BME280;44750;52.040;7.472;2023-03-04T08:06:39;101039.84;;;5.38;100.00
58973;BME280;44750;52.040;7.472;2023-03-04T08:11:40;101049.03;;;5.46;96.87
58973;BME280;44750;52.040;7.472;2023-03-04T08:16:40;101047.69;;;5.41;92.33
58973;BME280;44750;52.040;7.472;2023-03-04T08:21:40;101061.97;;;5.41;87.97
58973;BME280;44750;52.040;7.472;2023-03-04T08:26:43;101084.19;;;5.43;83.31
58973;BME280;44750;52.040;7.472;2023-03-04T08:31:44;101091.09;;;5.34;78.74
58973;BME280;44750;52.040;7.472;2023-03-04T08:36:44;101109.47;;;5.28;73.48
58973;BME280;44750;52.040;7.472;2023-03-04T08:41:46;101154.19;;;5.53;66.93
58973;BME280;44750;52.040;7.472;2023-03-04T08:46:46;101165.09;;;5.76;62.47
58973;BME280;44750;52.040;7.472;2023-03-04T08:51:46;101165.44;;;5.84;59.40
58973;BME280;44750;52.040;7.472;2023-03-04T08:56:47;101176.69;;;6.02;55.73
58973;BME280;44750;52.040;7.472;2023-03-04T09:01:47;101180.00;;;6.06;53.62
58973;BME280;44750;52.040;7.472;2023-03-04T09:06:47;101193.09;;;6.10;52.18
58973;BME280;44750;52.040;7.472;2023-03-04T09:11:48;101186.13;;;6.08;50.12
58973;BME280;44750;52.040;7.472;2023-03-04T09:16:48;101190.44;;;5.97;49.11
58973;BME280;44750;52.040;7.472;2023-03-04T09:21:49;101188.44;;;5.75;47.04
58973;BME280;44750;52.040;7.472;2023-03-04T09:26:53;101195.75;;;5.73;42.89
58973;BME280;44750;52.040;7.472;2023-03-04T09:31:53;101213.78;;;5.71;39.22
58973;BME280;44750;52.040;7.472;2023-03-04T09:36:54;101230.75;;;5.84;33.93
58973;BME280;44750;52.040;7.472;2023-03-04T09:41:57;101246.66;;;5.88;31.00
58973;BME280;44750;52.040;7.472;2023-03-04T09:47:02;101260.97;;;6.01;26.78
58973;BME280;44750;52.040;7.472;2023-03-04T09:57:50;101282.59;;;6.49;21.45
58973;BME280;44750;52.040;7.472;2023-03-04T10:19:00;101228.22;;;6.81;24.80
58973;BME280;44750;52.040;7.472;2023-03-04T10:24:00;101208.09;;;6.74;29.19
58973;BME280;44750;52.040;7.472;2023-03-04T10:29:04;101202.34;;;6.67;31.96
58973;BME280;44750;52.040;7.472;2023-03-04T10:34:05;101190.97;;;6.64;30.98
58973;BME280;44750;52.040;7.472;2023-03-04T10:39:08;101180.41;;;6.61;29.81
58973;BME280;44750;52.040;7.472;2023-03-04T10:49:11;101181.19;;;6.63;23.85
58973;BME280;44750;52.040;7.472;2023-03-04T10:54:23;101215.03;;;6.90;21.47
58973;BME280;44750;52.040;7.472;2023-03-04T10:59:32;101229.53;;;7.11;18.75
58973;BME280;44750;52.040;7.472;2023-03-04T11:04:33;101188.81;;;6.80;20.88
58973;BME280;44750;52.040;7.472;2023-03-04T11:09:33;101215.75;;;6.92;18.15
58973;BME280;44750;52.040;7.472;2023-03-04T11:14:44;101211.97;;;6.94;17.28
58973;BME280;44750;52.040;7.472;2023-03-04T11:19:53;101184.97;;;6.72;18.95
58973;BME280;44750;52.040;7.472;2023-03-04T11:25:03;101189.50;;;6.60;17.58
58973;BME280;44750;52.040;7.472;2023-03-04T11:30:18;101181.06;;;6.16;17.57
58973;BME280;44750;52.040;7.472;2023-03-04T11:35:34;101217.38;;;6.22;13.16
58973;BME280;44750;52.040;7.472;2023-03-04T11:40:42;101210.84;;;6.37;11.82
58973;BME280;44750;52.040;7.472;2023-03-04T11:46:05;101218.19;;;6.59;11.99
58973;BME280;44750;52.040;7.472;2023-03-04T11:51:29;101179.03;;;6.44;20.64
58973;BME280;44750;52.040;7.472;2023-03-04T11:56:36;101173.34;;;6.60;27.03
58973;BME280;44750;52.040;7.472;2023-03-04T12:02:10;101139.88;;;6.75;33.02
58973;BME280;44750;52.040;7.472;2023-03-04T12:07:27;101130.63;;;6.91;37.71
58973;BME280;44750;52.040;7.472;2023-03-04T12:12:46;101113.75;;;7.11;42.44
58973;BME280;44750;52.040;7.472;2023-03-04T12:18:12;101122.47;;;7.60;44.22
58973;BME280;44750;52.040;7.472;2023-03-04T12:28:53;101010.78;;;7.64;56.38
58973;BME280;44750;52.040;7.472;2023-03-04T12:45:19;100922.59;;;7.87;76.10
58973;BME280;44750;52.040;7.472;2023-03-04T12:55:38;100826.13;;;7.81;93.62
58973;BME280;44750;52.040;7.472;2023-03-04T13:06:02;100739.28;;;7.78;100.00
58973;BME280;44750;52.040;7.472;2023-03-04T13:21:45;100608.03;;;8.09;100.00
58973;BME280;44750;52.040;7.472;2023-03-04T13:26:47;100583.28;;;7.84;100.00
58973;BME280;44750;52.040;7.472;2023-03-04T13:36:57;100551.06;;;7.23;100.00
58973;BME280;44750;52.040;7.472;2023-03-04T13:41:58;100612.47;;;7.08;100.00
58973;BME280;44750;52.040;7.472;2023-03-04T13:47:13;100606.88;;;7.20;100.00
58973;BME280;44750;52.040;7.472;2023-03-04T13:52:40;100627.34;;;7.33;100.00
58973;BME280;44750;52.040;7.472;2023-03-04T13:57:48;100620.28;;;7.32;100.00
58973;BME280;44750;52.040;7.472;2023-03-04T14:02:48;100614.16;;;7.30;100.00
58973;BME280;44750;52.040;7.472;2023-03-04T14:07:50;100598.81;;;7.20;100.00
58973;BME280;44750;52.040;7.472;2023-03-04T14:12:53;100613.47;;;7.28;100.00
58973;BME280;44750;52.040;7.472;2023-03-04T14:17:58;100617.75;;;7.40;100.00
58973;BME280;44750;52.040;7.472;2023-03-04T14:23:03;100629.41;;;7.19;100.00
58973;BME280;44750;52.040;7.472;2023-03-04T14:28:15;100625.13;;;7.17;100.00
58973;BME280;44750;52.040;7.472;2023-03-04T14:33:25;100661.13;;;7.37;100.00
58973;BME280;44750;52.040;7.472;2023-03-04T14:38:31;100653.66;;;7.50;100.00
58973;BME280;44750;52.040;7.472;2023-03-04T14:43:38;100606.34;;;7.27;100.00
58973;BME280;44750;52.040;7.472;2023-03-04T14:48:48;100599.03;;;7.39;100.00
58973;BME280;44750;52.040;7.472;2023-03-04T14:53:54;100597.50;;;7.46;100.00
58973;BME280;44750;52.040;7.472;2023-03-04T14:58:57;100639.28;;;7.71;100.00
58973;BME280;44750;52.040;7.472;2023-03-04T15:04:03;100653.91;;;7.78;100.00
58973;BME280;44750;52.040;7.472;2023-03-04T15:09:07;100659.94;;;7.92;100.00
58973;BME280;44750;52.040;7.472;2023-03-04T15:19:43;100658.44;;;7.37;100.00
58973;BME280;44750;52.040;7.472;2023-03-04T15:24:43;100641.97;;;7.09;100.00
58973;BME280;44750;52.040;7.472;2023-03-04T15:29:43;100682.88;;;7.24;100.00
58973;BME280;44750;52.040;7.472;2023-03-04T15:34:43;100660.41;;;7.14;100.00
58973;BME280;44750;52.040;7.472;2023-03-04T15:39:44;100672.09;;;7.03;100.00
58973;BME280;44750;52.040;7.472;2023-03-04T15:44:44;100674.69;;;7.14;100.00
58973;BME280;44750;52.040;7.472;2023-03-04T15:49:44;100671.59;;;7.09;100.00
58973;BME280;44750;52.040;7.472;2023-03-04T15:54:46;100645.38;;;6.90;100.00
58973;BME280;44750;52.040;7.472;2023-03-04T15:59:49;100673.34;;;6.99;100.00
58973;BME280;44750;52.040;7.472;2023-03-04T16:04:49;100691.06;;;6.69;100.00
58973;BME280;44750;52.040;7.472;2023-03-04T16:09:57;100700.91;;;6.15;100.00
58973;BME280;44750;52.040;7.472;2023-03-04T16:14:58;100694.69;;;6.03;100.00
58973;BME280;44750;52.040;7.472;2023-03-04T16:19:58;100677.34;;;5.96;100.00
58973;BME280;44750;52.040;7.472;2023-03-04T16:24:59;100694.56;;;6.05;100.00
58973;BME280;44750;52.040;7.472;2023-03-04T16:29:59;100692.72;;;5.94;100.00
58973;BME280;44750;52.040;7.472;2023-03-04T16:34:59;100703.59;;;6.03;100.00
58973;BME280;44750;52.040;7.472;2023-03-04T16:39:59;100707.88;;;6.06;100.00
58973;BME280;44750;52.040;7.472;2023-03-04T16:45:00;100673.78;;;5.73;100.00
58973;BME280;44750;52.040;7.472;2023-03-04T16:50:00;100693.94;;;5.78;100.00
58973;BME280;44750;52.040;7.472;2023-03-04T16:55:00;100681.47;;;5.66;100.00
58973;BME280;44750;52.040;7.472;2023-03-04T17:00:01;100693.56;;;5.72;100.00
58973;BME280;44750;52.040;7.472;2023-03-04T17:05:09;100667.56;;;5.49;100.00
58973;BME280;44750;52.040;7.472;2023-03-04T17:10:12;100670.00;;;5.52;100.00
58973;BME280;44750;52.040;7.472;2023-03-04T17:15:13;100680.63;;;5.65;100.00
58973;BME280;44750;52.040;7.472;2023-03-04T17:20:16;100701.28;;;5.76;100.00
58973;BME280;44750;52.040;7.472;2023-03-04T17:25:16;100682.47;;;5.76;100.00
58973;BME280;44750;52.040;7.472;2023-03-04T17:30:17;100678.53;;;5.69;100.00
58973;BME280;44750;52.040;7.472;2023-03-04T17:35:17;100692.81;;;5.81;100.00
58973;BME280;44750;52.040;7.472;2023-03-04T17:40:17;100684.78;;;5.69;100.00
58973;BME280;44750;52.040;7.472;2023-03-04T17:45:17;100694.31;;;5.74;100.00
58973;BME280;44750;52.040;7.472;2023-03-04T17:50:18;100709.56;;;5.62;100.00
58973;BME280;44750;52.040;7.472;2023-03-04T17:55:18;100709.28;;;5.42;100.00
58973;BME280;44750;52.040;7.472;2023-03-04T18:00:22;100720.91;;;4.96;100.00
58973;BME280;44750;52.040;7.472;2023-03-04T18:05:23;100731.28;;;5.00;100.00
58973;BME280;44750;52.040;7.472;2023-03-04T18:10:23;100740.28;;;4.99;100.00
58973;BME280;44750;52.040;7.472;2023-03-04T18:15:23;100750.50;;;4.94;100.00
58973;BME280;44750;52.040;7.472;2023-03-04T18:20:23;100725.47;;;4.82;100.00
58973;BME280;44750;52.040;7.472;2023-03-04T18:25:24;100734.06;;;4.99;100.00
58973;BME280;44750;52.040;7.472;2023-03-04T18:30:24;100730.13;;;4.92;100.00
58973;BME280;44750;52.040;7.472;2023-03-04T18:35:25;100758.72;;;5.04;100.00
58973;BME280;44750;52.040;7.472;2023-03-04T18:40:26;100743.78;;;4.89;100.00
58973;BME280;44750;52.040;7.472;2023-03-04T18:45:26;100766.28;;;4.99;100.00
58973;BME280;44750;52.040;7.472;2023-03-04T18:50:27;100756.00;;;4.93;100.00
58973;BME280;44750;52.040;7.472;2023-03-04T18:55:27;100723.50;;;4.73;100.00
58973;BME280;44750;52.040;7.472;2023-03-04T19:00:27;100755.34;;;4.89;100.00
58973;BME280;44750;52.040;7.472;2023-03-04T19:05:30;100755.84;;;4.83;100.00
58973;BME280;44750;52.040;7.472;2023-03-04T19:10:31;100755.09;;;4.81;100.00
58973;BME280;44750;52.040;7.472;2023-03-04T19:15:31;100762.56;;;4.89;100.00
58973;BME280;44750;52.040;7.472;2023-03-04T19:20:32;100758.91;;;4.90;100.00
58973;BME280;44750;52.040;7.472;2023-03-04T19:25:32;100746.91;;;4.82;100.00
58973;BME280;44750;52.040;7.472;2023-03-04T19:30:35;100734.31;;;4.72;100.00
58973;BME280;44750;52.040;7.472;2023-03-04T19:35:39;100768.69;;;4.91;100.00
58973;BME280;44750;52.040;7.472;2023-03-04T19:40:40;100734.41;;;4.59;100.00
58973;BME280;44750;52.040;7.472;2023-03-04T19:45:40;100745.72;;;4.38;100.00
58973;BME280;44750;52.040;7.472;2023-03-04T19:50:41;100768.84;;;4.52;100.00
58973;BME280;44750;52.040;7.472;2023-03-04T19:55:41;100761.72;;;4.64;100.00
58973;BME280;44750;52.040;7.472;2023-03-04T20:00:41;100771.94;;;4.83;100.00
58973;BME280;44750;52.040;7.472;2023-03-04T20:05:42;100762.59;;;4.76;100.00
58973;BME280;44750;52.040;7.472;2023-03-04T20:10:42;100773.66;;;4.84;100.00
58973;BME280;44750;52.040;7.472;2023-03-04T20:15:42;100769.16;;;4.72;100.00
58973;BME280;44750;52.040;7.472;2023-03-04T20:20:43;100768.56;;;4.68;100.00
58973;BME280;44750;52.040;7.472;2023-03-04T20:25:43;100770.72;;;4.63;100.00
58973;BME280;44750;52.040;7.472;2023-03-04T20:30:43;100784.38;;;4.84;100.00
58973;BME280;44750;52.040;7.472;2023-03-04T20:35:43;100754.41;;;4.66;100.00
58973;BME280;44750;52.040;7.472;2023-03-04T20:40:44;100749.16;;;4.64;100.00
58973;BME280;44750;52.040;7.472;2023-03-04T20:45:44;100749.13;;;4.77;100.00
58973;BME280;44750;52.040;7.472;2023-03-04T20:50:44;100754.97;;;4.82;100.00
58973;BME280;44750;52.040;7.472;2023-03-04T20:55:44;100749.59;;;4.82;100.00
58973;BME280;44750;52.040;7.472;2023-03-04T21:00:50;100728.44;;;4.66;100.00
58973;BME280;44750;52.040;7.472;2023-03-04T21:05:50;100733.97;;;4.76;100.00
58973;BME280;44750;52.040;7.472;2023-03-04T21:10:50;100731.19;;;4.78;100.00
58973;BME280;44750;52.040;7.472;2023-03-04T21:15:50;100716.41;;;4.72;100.00
58973;BME280;44750;52.040;7.472;2023-03-04T21:20:51;100713.84;;;4.71;100.00
58973;BME280;44750;52.040;7.472;2023-03-04T21:25:51;100707.50;;;4.72;100.00
58973;BME280;44750;52.040;7.472;2023-03-04T21:30:51;100714.25;;;4.77;100.00
58973;BME280;44750;52.040;7.472;2023-03-04T21:35:52;100694.22;;;4.70;100.00
58973;BME280;44750;52.040;7.472;2023-03-04T21:40:52;100690.09;;;4.53;100.00
58973;BME280;44750;52.040;7.472;2023-03-04T21:45:54;100700.13;;;4.62;100.00
58973;BME280;44750;52.040;7.472;2023-03-04T21:51:00;100701.53;;;4.68;100.00
58973;BME280;44750;52.040;7.472;2023-03-04T21:56:00;100658.22;;;4.37;100.00
58973;BME280;44750;52.040;7.472;2023-03-04T22:01:11;100690.59;;;4.47;100.00
58973;BME280;44750;52.040;7.472;2023-03-04T22:06:12;100690.22;;;4.51;100.00
58973;BME280;44750;52.040;7.472;2023-03-04T22:11:12;100681.34;;;4.51;100.00
58973;BME280;44750;52.040;7.472;2023-03-04T22:16:13;100696.50;;;4.63;100.00
58973;BME280;44750;52.040;7.472;2023-03-04T22:21:16;100688.34;;;4.65;100.00
58973;BME280;44750;52.040;7.472;2023-03-04T22:26:20;100686.25;;;4.57;100.00
58973;BME280;44750;52.040;7.472;2023-03-04T22:31:29;100670.50;;;4.52;100.00
58973;BME280;44750;52.040;7.472;2023-03-04T22:36:32;100681.34;;;4.51;100.00
58973;BME280;44750;52.040;7.472;2023-03-04T22:41:34;100663.38;;;4.40;100.00
58973;BME280;44750;52.040;7.472;2023-03-04T22:46:36;100667.03;;;4.39;100.00
58973;BME280;44750;52.040;7.472;2023-03-04T22:51:37;100645.19;;;4.32;100.00
58973;BME280;44750;52.040;7.472;2023-03-04T22:56:38;100677.06;;;4.48;100.00
58973;BME280;44750;52.040;7.472;2023-03-04T23:01:39;100666.19;;;4.39;100.00
58973;BME280;44750;52.040;7.472;2023-03-04T23:06:39;100664.59;;;4.36;100.00
58973;BME280;44750;52.040;7.472;2023-03-04T23:11:40;100634.50;;;4.19;100.00
58973;BME280;44750;52.040;7.472;2023-03-04T23:16:40;100664.91;;;4.31;100.00
58973;BME280;44750;52.040;7.472;2023-03-04T23:21:41;100659.91;;;4.27;100.00
58973;BME280;44750;52.040;7.472;2023-03-04T23:26:43;100658.81;;;4.29;100.00
58973;BME280;44750;52.040;7.472;2023-03-04T23:31:43;100643.44;;;4.20;100.00
58973;BME280;44750;52.040;7.472;2023-03-04T23:36:44;100663.53;;;4.26;100.00
58973;BME280;44750;52.040;7.472;2023-03-04T23:41:44;100656.94;;;4.18;100.00
58973;BME280;44750;52.040;7.472;2023-03-04T23:46:44;100658.31;;;4.24;100.00
58973;BME280;44750;52.040;7.472;2023-03-04T23:51:45;100649.75;;;4.19;100.00
58973;BME280;44750;52.040;7.472;2023-03-04T23:56:45;100652.56;;;4.17;100.00
